createdAt,value
2018-06-10T00:00:10.797Z,1007.04
2018-06-10T00:01:10.740Z,1007.06
2018-06-10T00:02:10.724Z,1007.05
2018-06-10T00:03:10.682Z,1007.06
2018-06-10T00:04:10.646Z,1007.08
2018-06-10T00:05:10.622Z,1007.11
2018-06-10T00:06:10.563Z,1007.05
2018-06-10T00:07:10.531Z,1007.09
2018-06-10T00:08:10.522Z,1007.16
2018-06-10T00:09:10.476Z,1007.18
2018-06-10T00:10:10.453Z,1007.22
2018-06-10T00:11:10.388Z,1007.23
2018-06-10T00:12:10.363Z,1007.24
2018-06-10T00:13:10.309Z,1007.28
2018-06-10T00:14:10.272Z,1007.28
2018-06-10T00:15:10.259Z,1007.33
2018-06-10T00:16:10.241Z,1007.18
2018-06-10T00:17:10.164Z,1007.17
2018-06-10T00:18:10.140Z,1007.23
2018-06-10T00:19:10.086Z,1007.33
2018-06-10T00:20:10.205Z,1007.38
2018-06-10T00:21:10.026Z,1007.32
2018-06-10T00:22:09.980Z,1007.34
2018-06-10T00:23:09.946Z,1007.34
2018-06-10T00:24:09.899Z,1007.27
2018-06-10T00:25:09.884Z,1007.21
2018-06-10T00:26:09.849Z,1007.18
2018-06-10T00:27:09.812Z,1007.14
2018-06-10T00:28:09.779Z,1007.14
2018-06-10T00:29:09.740Z,1007.09
2018-06-10T00:30:09.713Z,1007.11
2018-06-10T00:31:09.653Z,1007.13
2018-06-10T00:32:09.620Z,1007.07
2018-06-10T00:33:09.582Z,1007.03
2018-06-10T00:34:09.531Z,1006.98
2018-06-10T00:35:09.535Z,1006.92
2018-06-10T00:36:09.449Z,1006.90
2018-06-10T00:37:09.415Z,1006.88
2018-06-10T00:38:09.384Z,1006.84
2018-06-10T00:39:09.373Z,1006.87
2018-06-10T00:40:09.298Z,1006.91
2018-06-10T00:41:17.721Z,1006.93
2018-06-10T00:42:09.252Z,1006.95
2018-06-10T00:43:09.187Z,1006.94
2018-06-10T00:44:09.199Z,1006.95
2018-06-10T00:45:09.144Z,1006.93
2018-06-10T00:46:09.093Z,1006.94
2018-06-10T00:47:09.050Z,1006.91
2018-06-10T00:48:09.013Z,1006.89
2018-06-10T00:49:08.981Z,1006.86
2018-06-10T00:50:08.977Z,1006.82
2018-06-10T00:51:08.921Z,1006.86
2018-06-10T00:52:08.881Z,1006.81
2018-06-10T00:53:08.833Z,1006.81
2018-06-10T00:54:08.817Z,1006.79
2018-06-10T00:55:08.763Z,1006.76
2018-06-10T00:56:08.753Z,1006.76
2018-06-10T00:57:08.682Z,1006.73
2018-06-10T00:58:08.652Z,1006.69
2018-06-10T00:59:08.620Z,1006.67
2018-06-10T01:00:08.607Z,1006.65
2018-06-10T01:01:08.530Z,1006.64
2018-06-10T01:02:08.512Z,1006.67
2018-06-10T01:03:08.469Z,1006.65
2018-06-10T01:04:08.448Z,1006.62
2018-06-10T01:05:08.409Z,1006.60
2018-06-10T01:06:08.377Z,1006.61
2018-06-10T01:07:08.318Z,1006.57
2018-06-10T01:08:08.280Z,1006.58
2018-06-10T01:09:08.321Z,1006.61
2018-06-10T01:10:08.230Z,1006.54
2018-06-10T01:11:08.225Z,1006.55
2018-06-10T01:12:08.139Z,1006.57
2018-06-10T01:13:08.090Z,1006.61
2018-06-10T01:14:08.062Z,1006.59
2018-06-10T01:15:08.017Z,1006.55
2018-06-10T01:16:07.999Z,1006.63
2018-06-10T01:17:07.960Z,1006.63
2018-06-10T01:18:07.922Z,1006.62
2018-06-10T01:19:07.879Z,1006.59
2018-06-10T01:20:07.846Z,1006.58
2018-06-10T01:21:07.840Z,1006.56
2018-06-10T01:22:07.757Z,1006.61
2018-06-10T01:23:07.730Z,1006.58
2018-06-10T01:24:07.690Z,1006.58
2018-06-10T01:25:07.676Z,1006.58
2018-06-10T01:26:07.644Z,1006.54
2018-06-10T01:27:07.578Z,1006.55
2018-06-10T01:28:07.535Z,1006.54
2018-06-10T01:29:07.506Z,1006.53
2018-06-10T01:30:07.490Z,1006.54
2018-06-10T01:31:07.453Z,1006.57
2018-06-10T01:32:07.417Z,1006.52
2018-06-10T01:33:07.362Z,1006.48
2018-06-10T01:34:07.324Z,1006.47
2018-06-10T01:35:07.283Z,1006.45
2018-06-10T01:36:07.245Z,1006.45
2018-06-10T01:37:07.236Z,1006.48
2018-06-10T01:38:07.203Z,1006.51
2018-06-10T01:39:07.152Z,1006.51
2018-06-10T01:40:07.136Z,1006.59
2018-06-10T01:41:07.070Z,1006.56
2018-06-10T01:42:07.099Z,1006.58
2018-06-10T01:43:06.993Z,1006.53
2018-06-10T01:44:06.961Z,1006.50
2018-06-10T01:45:06.935Z,1006.54
2018-06-10T01:46:06.882Z,1006.57
2018-06-10T01:47:06.869Z,1006.55
2018-06-10T01:48:06.837Z,1006.58
2018-06-10T01:49:06.765Z,1006.60
2018-06-10T01:50:06.748Z,1006.60
2018-06-10T01:51:06.714Z,1006.59
2018-06-10T01:52:06.672Z,1006.59
2018-06-10T01:53:07.632Z,1006.58
2018-06-10T01:54:06.605Z,1006.54
2018-06-10T01:55:06.547Z,1006.48
2018-06-10T01:56:06.542Z,1006.43
2018-06-10T01:57:06.508Z,1006.44
2018-06-10T01:58:06.480Z,1006.45
2018-06-10T01:59:06.416Z,1006.47
2018-06-10T02:00:06.366Z,1006.49
2018-06-10T02:01:06.339Z,1006.48
2018-06-10T02:02:06.298Z,1006.50
2018-06-10T02:03:06.309Z,1006.49
2018-06-10T02:04:06.255Z,1006.48
2018-06-10T02:05:06.201Z,1006.45
2018-06-10T02:06:06.160Z,1006.40
2018-06-10T02:07:06.111Z,1006.37
2018-06-10T02:08:06.080Z,1006.33
2018-06-10T02:09:06.061Z,1006.29
2018-06-10T02:10:06.004Z,1006.28
2018-06-10T02:11:05.984Z,1006.24
2018-06-10T02:12:05.944Z,1006.22
2018-06-10T02:13:05.905Z,1006.21
2018-06-10T02:14:05.889Z,1006.24
2018-06-10T02:15:05.826Z,1006.22
2018-06-10T02:16:16.300Z,1006.18
2018-06-10T02:17:05.743Z,1006.19
2018-06-10T02:18:05.698Z,1006.19
2018-06-10T02:19:05.695Z,1006.18
2018-06-10T02:20:05.620Z,1006.18
2018-06-10T02:21:05.593Z,1006.19
2018-06-10T02:22:05.565Z,1006.21
2018-06-10T02:23:05.538Z,1006.23
2018-06-10T02:24:05.494Z,1006.22
2018-06-10T02:25:05.474Z,1006.17
2018-06-10T02:26:05.403Z,1006.12
2018-06-10T02:27:05.371Z,1006.12
2018-06-10T02:28:05.340Z,1006.12
2018-06-10T02:29:05.316Z,1006.11
2018-06-10T02:30:05.287Z,1006.08
2018-06-10T02:31:05.219Z,1006.08
2018-06-10T02:32:05.196Z,1006.09
2018-06-10T02:33:05.160Z,1006.07
2018-06-10T02:34:05.125Z,1006.05
2018-06-10T02:35:05.123Z,1006.05
2018-06-10T02:36:05.047Z,1006.06
2018-06-10T02:37:05.011Z,1006.06
2018-06-10T02:38:04.977Z,1006.05
2018-06-10T02:39:15.272Z,1006.06
2018-06-10T02:40:14.813Z,1006.06
2018-06-10T02:41:04.853Z,1006.00
2018-06-10T02:42:04.829Z,1006.04
2018-06-10T02:43:04.794Z,1005.98
2018-06-10T02:44:04.765Z,1006.00
2018-06-10T02:45:04.710Z,1006.01
2018-06-10T02:46:04.696Z,1006.01
2018-06-10T02:47:04.632Z,1005.98
2018-06-10T02:48:04.599Z,1006.01
2018-06-10T02:49:04.625Z,1006.02
2018-06-10T02:50:04.542Z,1006.04
2018-06-10T02:51:04.523Z,1006.06
2018-06-10T02:52:04.460Z,1006.06
2018-06-10T02:53:04.424Z,1006.04
2018-06-10T02:54:04.396Z,1006.06
2018-06-10T02:55:04.362Z,1006.05
2018-06-10T02:56:04.341Z,1006.06
2018-06-10T02:57:04.278Z,1006.06
2018-06-10T02:58:04.260Z,1006.08
2018-06-10T02:59:04.202Z,1006.04
2018-06-10T03:00:04.155Z,1006.08
2018-06-10T03:01:04.139Z,1006.04
2018-06-10T03:02:04.137Z,1006.04
2018-06-10T03:03:15.321Z,1006.01
2018-06-10T03:04:04.001Z,1005.97
2018-06-10T03:05:03.974Z,1006.00
2018-06-10T03:06:03.976Z,1005.97
2018-06-10T03:07:03.908Z,1005.99
2018-06-10T03:08:03.862Z,1005.96
2018-06-10T03:09:03.837Z,1005.96
2018-06-10T03:10:03.794Z,1005.96
2018-06-10T03:11:03.782Z,1005.96
2018-06-10T03:12:03.733Z,1005.99
2018-06-10T03:13:03.770Z,1005.99
2018-06-10T03:14:03.681Z,1005.96
2018-06-10T03:15:03.626Z,1005.98
2018-06-10T03:16:03.612Z,1005.98
2018-06-10T03:17:03.551Z,1005.95
2018-06-10T03:18:03.501Z,1005.95
2018-06-10T03:19:03.454Z,1005.94
2018-06-10T03:20:03.423Z,1005.93
2018-06-10T03:21:03.449Z,1005.92
2018-06-10T03:22:03.351Z,1005.93
2018-06-10T03:23:03.338Z,1005.91
2018-06-10T03:24:03.299Z,1005.94
2018-06-10T03:25:03.256Z,1005.91
2018-06-10T03:26:03.266Z,1005.90
2018-06-10T03:27:03.173Z,1005.90
2018-06-10T03:28:03.155Z,1005.92
2018-06-10T03:29:03.093Z,1005.93
2018-06-10T03:30:03.067Z,1005.93
2018-06-10T03:31:03.037Z,1005.91
2018-06-10T03:32:02.998Z,1005.93
2018-06-10T03:33:02.974Z,1005.90
2018-06-10T03:34:02.920Z,1005.93
2018-06-10T03:35:02.882Z,1005.93
2018-06-10T03:36:02.863Z,1005.96
2018-06-10T03:37:02.809Z,1005.92
2018-06-10T03:38:02.775Z,1005.98
2018-06-10T03:39:02.746Z,1005.96
2018-06-10T03:40:02.717Z,1005.95
2018-06-10T03:41:02.643Z,1005.93
2018-06-10T03:42:02.625Z,1005.96
2018-06-10T03:43:02.593Z,1005.92
2018-06-10T03:44:02.561Z,1005.96
2018-06-10T03:45:02.547Z,1005.94
2018-06-10T03:46:02.478Z,1006.00
2018-06-10T03:47:02.450Z,1006.02
2018-06-10T03:48:02.399Z,1005.99
2018-06-10T03:49:02.381Z,1005.99
2018-06-10T03:50:02.339Z,1006.03
2018-06-10T03:51:02.291Z,1006.00
2018-06-10T03:52:02.265Z,1006.01
2018-06-10T03:53:02.239Z,1005.99
2018-06-10T03:54:02.179Z,1006.01
2018-06-10T03:55:02.168Z,1005.97
2018-06-10T03:56:02.117Z,1005.98
2018-06-10T03:57:02.082Z,1005.96
2018-06-10T03:58:02.023Z,1005.95
2018-06-10T03:59:02.032Z,1005.93
2018-06-10T04:00:01.968Z,1005.94
2018-06-10T04:01:01.926Z,1005.95
2018-06-10T04:02:01.890Z,1005.95
2018-06-10T04:03:01.830Z,1005.96
2018-06-10T04:04:01.816Z,1005.97
2018-06-10T04:05:01.794Z,1005.94
2018-06-10T04:06:01.744Z,1005.95
2018-06-10T04:07:01.704Z,1005.90
2018-06-10T04:08:01.685Z,1005.89
2018-06-10T04:09:01.630Z,1005.90
2018-06-10T04:10:01.613Z,1005.91
2018-06-10T04:11:01.565Z,1005.92
2018-06-10T04:12:01.544Z,1005.93
2018-06-10T04:13:01.476Z,1005.95
2018-06-10T04:14:12.901Z,1005.93
2018-06-10T04:15:01.423Z,1005.90
2018-06-10T04:16:01.382Z,1005.92
2018-06-10T04:17:01.332Z,1005.90
2018-06-10T04:18:01.294Z,1005.90
2018-06-10T04:19:01.264Z,1005.87
2018-06-10T04:20:01.238Z,1005.89
2018-06-10T04:21:01.174Z,1005.89
2018-06-10T04:22:01.164Z,1005.92
2018-06-10T04:23:01.123Z,1005.91
2018-06-10T04:24:01.093Z,1005.92
2018-06-10T04:25:01.035Z,1005.88
2018-06-10T04:26:01.000Z,1005.92
2018-06-10T04:27:00.970Z,1005.91
2018-06-10T04:28:00.939Z,1005.96
2018-06-10T04:29:00.917Z,1005.93
2018-06-10T04:30:00.925Z,1005.94
2018-06-10T04:31:00.805Z,1005.95
2018-06-10T04:32:00.813Z,1005.96
2018-06-10T04:33:00.750Z,1005.96
2018-06-10T04:34:00.727Z,1005.96
2018-06-10T04:35:00.672Z,1006.00
2018-06-10T04:36:00.640Z,1006.02
2018-06-10T04:37:00.596Z,1005.97
2018-06-10T04:38:00.567Z,1006.01
2018-06-10T04:39:00.559Z,1006.02
2018-06-10T04:40:00.513Z,1006.03
2018-06-10T04:41:00.461Z,1006.04
2018-06-10T04:42:00.418Z,1006.02
2018-06-10T04:43:00.377Z,1006.03
2018-06-10T04:44:00.353Z,1006.02
2018-06-10T04:45:00.296Z,1006.02
2018-06-10T04:46:00.296Z,1006.01
2018-06-10T04:47:00.258Z,1006.03
2018-06-10T04:48:00.206Z,1006.07
2018-06-10T04:49:00.183Z,1006.07
2018-06-10T04:50:00.123Z,1006.11
2018-06-10T04:51:00.083Z,1006.14
2018-06-10T04:52:00.065Z,1006.15
2018-06-10T04:53:00.056Z,1006.15
2018-06-10T04:54:00.019Z,1006.18
2018-06-10T04:54:59.947Z,1006.21
2018-06-10T04:55:59.916Z,1006.20
2018-06-10T04:56:59.865Z,1006.20
2018-06-10T04:57:59.827Z,1006.22
2018-06-10T04:58:59.832Z,1006.23
2018-06-10T04:59:59.763Z,1006.24
2018-06-10T05:00:59.757Z,1006.26
2018-06-10T05:02:09.886Z,1006.31
2018-06-10T05:02:59.649Z,1006.32
2018-06-10T05:03:59.662Z,1006.38
2018-06-10T05:04:59.571Z,1006.41
2018-06-10T05:05:59.535Z,1006.43
2018-06-10T05:06:59.502Z,1006.41
2018-06-10T05:07:59.491Z,1006.41
2018-06-10T05:08:59.420Z,1006.42
2018-06-10T05:09:59.405Z,1006.41
2018-06-10T05:10:59.352Z,1006.46
2018-06-10T05:11:59.342Z,1006.42
2018-06-10T05:12:59.318Z,1006.46
2018-06-10T05:13:59.282Z,1006.48
2018-06-10T05:14:59.228Z,1006.48
2018-06-10T05:15:59.202Z,1006.51
2018-06-10T05:16:59.138Z,1006.53
2018-06-10T05:17:59.147Z,1006.53
2018-06-10T05:18:59.084Z,1006.57
2018-06-10T05:19:59.105Z,1006.57
2018-06-10T05:20:58.996Z,1006.58
2018-06-10T05:21:58.957Z,1006.59
2018-06-10T05:22:58.965Z,1006.61
2018-06-10T05:23:58.905Z,1006.64
2018-06-10T05:25:09.920Z,1006.63
2018-06-10T05:25:58.808Z,1006.62
2018-06-10T05:26:58.769Z,1006.64
2018-06-10T05:27:58.774Z,1006.68
2018-06-10T05:28:58.738Z,1006.69
2018-06-10T05:29:58.665Z,1006.66
2018-06-10T05:30:58.627Z,1006.67
2018-06-10T05:31:58.635Z,1006.62
2018-06-10T05:32:58.577Z,1006.62
2018-06-10T05:33:58.532Z,1006.60
2018-06-10T05:34:58.502Z,1006.61
2018-06-10T05:35:58.492Z,1006.60
2018-06-10T05:36:58.417Z,1006.57
2018-06-10T05:37:58.417Z,1006.61
2018-06-10T05:38:58.340Z,1006.61
2018-06-10T05:39:58.336Z,1006.60
2018-06-10T05:40:58.289Z,1006.58
2018-06-10T05:41:58.277Z,1006.60
2018-06-10T05:42:58.259Z,1006.61
2018-06-10T05:43:58.161Z,1006.62
2018-06-10T05:44:58.161Z,1006.65
2018-06-10T05:45:58.116Z,1006.63
2018-06-10T05:46:58.076Z,1006.64
2018-06-10T05:47:58.064Z,1006.70
2018-06-10T05:49:08.442Z,1006.70
2018-06-10T05:49:57.941Z,1006.69
2018-06-10T05:50:57.926Z,1006.72
2018-06-10T05:51:57.881Z,1006.75
2018-06-10T05:52:57.877Z,1006.79
2018-06-10T05:53:57.813Z,1006.78
2018-06-10T05:54:57.772Z,1006.81
2018-06-10T05:55:57.757Z,1006.80
2018-06-10T05:56:57.739Z,1006.82
2018-06-10T05:57:57.677Z,1006.80
2018-06-10T05:58:57.654Z,1006.77
2018-06-10T05:59:57.616Z,1006.79
2018-06-10T06:00:57.564Z,1006.77
2018-06-10T06:01:57.569Z,1006.73
2018-06-10T06:02:57.496Z,1006.76
2018-06-10T06:03:57.483Z,1006.74
2018-06-10T06:04:57.427Z,1006.74
2018-06-10T06:05:57.418Z,1006.76
2018-06-10T06:06:57.385Z,1006.77
2018-06-10T06:07:57.319Z,1006.74
2018-06-10T06:08:57.292Z,1006.71
2018-06-10T06:09:57.254Z,1006.72
2018-06-10T06:10:57.219Z,1006.72
2018-06-10T06:11:57.204Z,1006.75
2018-06-10T06:12:57.156Z,1006.73
2018-06-10T06:13:57.117Z,1006.75
2018-06-10T06:14:57.076Z,1006.76
2018-06-10T06:15:57.047Z,1006.76
2018-06-10T06:16:57.080Z,1006.76
2018-06-10T06:17:56.977Z,1006.80
2018-06-10T06:18:56.945Z,1006.81
2018-06-10T06:19:56.910Z,1006.87
2018-06-10T06:20:56.857Z,1006.89
2018-06-10T06:21:56.860Z,1006.92
2018-06-10T06:22:56.809Z,1006.96
2018-06-10T06:23:56.781Z,1006.90
2018-06-10T06:24:56.733Z,1006.88
2018-06-10T06:25:56.695Z,1006.92
2018-06-10T06:26:56.705Z,1006.95
2018-06-10T06:27:56.645Z,1006.94
2018-06-10T06:28:56.596Z,1006.99
2018-06-10T06:29:56.563Z,1006.98
2018-06-10T06:30:56.562Z,1006.96
2018-06-10T06:31:56.522Z,1006.98
2018-06-10T06:32:56.444Z,1006.98
2018-06-10T06:33:56.423Z,1006.97
2018-06-10T06:34:56.389Z,1006.96
2018-06-10T06:35:56.377Z,1006.95
2018-06-10T06:36:56.345Z,1006.98
2018-06-10T06:37:56.302Z,1006.98
2018-06-10T06:38:56.268Z,1006.96
2018-06-10T06:39:56.243Z,1006.97
2018-06-10T06:40:56.247Z,1006.97
2018-06-10T06:41:56.175Z,1006.95
2018-06-10T06:42:56.115Z,1006.97
2018-06-10T06:43:56.119Z,1006.97
2018-06-10T06:44:56.045Z,1006.96
2018-06-10T06:45:56.025Z,1006.94
2018-06-10T06:46:55.986Z,1006.95
2018-06-10T06:47:55.983Z,1006.99
2018-06-10T06:48:55.966Z,1007.00
2018-06-10T06:49:55.879Z,1006.96
2018-06-10T06:50:55.877Z,1006.96
2018-06-10T06:51:55.812Z,1007.00
2018-06-10T06:52:55.810Z,1007.01
2018-06-10T06:53:55.770Z,1007.03
2018-06-10T06:54:55.700Z,1007.03
2018-06-10T06:55:55.697Z,1007.04
2018-06-10T06:56:55.651Z,1007.04
2018-06-10T06:57:55.604Z,1007.06
2018-06-10T06:58:55.558Z,1007.04
2018-06-10T06:59:55.540Z,1007.06
2018-06-10T07:00:55.578Z,1007.03
2018-06-10T07:01:55.478Z,1007.02
2018-06-10T07:02:55.471Z,1007.02
2018-06-10T07:03:55.436Z,1007.02
2018-06-10T07:04:55.351Z,1007.01
2018-06-10T07:05:55.343Z,1007.04
2018-06-10T07:06:55.315Z,1007.00
2018-06-10T07:07:55.277Z,1007.00
2018-06-10T07:08:55.220Z,1006.97
2018-06-10T07:09:55.189Z,1007.00
2018-06-10T07:10:55.177Z,1007.01
2018-06-10T07:11:55.139Z,1007.00
2018-06-10T07:12:55.116Z,1006.99
2018-06-10T07:13:55.116Z,1006.99
2018-06-10T07:14:55.017Z,1006.99
2018-06-10T07:15:55.014Z,1006.98
2018-06-10T07:16:54.944Z,1007.00
2018-06-10T07:17:54.922Z,1007.00
2018-06-10T07:18:54.878Z,1007.03
2018-06-10T07:19:54.864Z,1007.02
2018-06-10T07:20:54.833Z,1007.05
2018-06-10T07:21:54.773Z,1007.04
2018-06-10T07:22:54.738Z,1007.06
2018-06-10T07:23:54.711Z,1007.04
2018-06-10T07:24:54.685Z,1007.05
2018-06-10T07:25:54.706Z,1007.06
2018-06-10T07:26:54.598Z,1007.06
2018-06-10T07:27:54.595Z,1007.04
2018-06-10T07:28:54.533Z,1007.03
2018-06-10T07:29:54.489Z,1007.01
2018-06-10T07:30:54.470Z,1007.01
2018-06-10T07:31:54.471Z,1007.03
2018-06-10T07:32:54.397Z,1006.99
2018-06-10T07:33:54.375Z,1007.00
2018-06-10T07:34:54.347Z,1007.01
2018-06-10T07:35:54.300Z,1007.03
2018-06-10T07:36:54.278Z,1007.00
2018-06-10T07:37:54.225Z,1007.01
2018-06-10T07:38:54.191Z,1007.01
2018-06-10T07:39:54.185Z,1006.98
2018-06-10T07:40:54.138Z,1007.00
2018-06-10T07:41:54.151Z,1007.01
2018-06-10T07:42:54.065Z,1007.03
2018-06-10T07:43:54.049Z,1007.03
2018-06-10T07:44:53.984Z,1007.04
2018-06-10T07:45:53.993Z,1007.03
2018-06-10T07:46:53.977Z,1007.05
2018-06-10T07:47:53.892Z,1007.07
2018-06-10T07:48:53.858Z,1007.06
2018-06-10T07:49:53.804Z,1007.08
2018-06-10T07:50:53.777Z,1007.14
2018-06-10T07:51:53.744Z,1007.17
2018-06-10T07:52:53.739Z,1007.18
2018-06-10T07:53:53.693Z,1007.19
2018-06-10T07:54:53.649Z,1007.18
2018-06-10T07:55:53.606Z,1007.17
2018-06-10T07:56:53.570Z,1007.16
2018-06-10T07:57:53.551Z,1007.20
2018-06-10T07:58:53.495Z,1007.21
2018-06-10T07:59:53.492Z,1007.21
2018-06-10T08:00:53.442Z,1007.20
2018-06-10T08:01:53.395Z,1007.20
2018-06-10T08:02:53.392Z,1007.17
2018-06-10T08:03:53.336Z,1007.18
2018-06-10T08:04:53.304Z,1007.17
2018-06-10T08:05:53.269Z,1007.19
2018-06-10T08:06:53.254Z,1007.18
2018-06-10T08:07:53.204Z,1007.21
2018-06-10T08:08:53.181Z,1007.18
2018-06-10T08:09:53.133Z,1007.17
2018-06-10T08:10:53.102Z,1007.20
2018-06-10T08:11:53.107Z,1007.23
2018-06-10T08:12:53.044Z,1007.23
2018-06-10T08:13:53.037Z,1007.28
2018-06-10T08:14:52.980Z,1007.26
2018-06-10T08:15:52.923Z,1007.25
2018-06-10T08:16:52.890Z,1007.24
2018-06-10T08:17:52.889Z,1007.23
2018-06-10T08:18:52.860Z,1007.18
2018-06-10T08:19:52.797Z,1007.21
2018-06-10T08:20:52.752Z,1007.24
2018-06-10T08:21:52.723Z,1007.23
2018-06-10T08:22:52.686Z,1007.28
2018-06-10T08:23:52.695Z,1007.24
2018-06-10T08:24:52.631Z,1007.17
2018-06-10T08:25:52.589Z,1007.15
2018-06-10T08:26:52.555Z,1007.12
2018-06-10T08:27:52.533Z,1007.16
2018-06-10T08:28:52.488Z,1007.17
2018-06-10T08:29:52.489Z,1007.16
2018-06-10T08:30:52.419Z,1007.18
2018-06-10T08:31:52.406Z,1007.25
2018-06-10T08:32:52.354Z,1007.28
2018-06-10T08:33:52.314Z,1007.37
2018-06-10T08:34:52.333Z,1007.34
2018-06-10T08:35:52.257Z,1007.34
2018-06-10T08:36:52.232Z,1007.32
2018-06-10T08:37:52.206Z,1007.30
2018-06-10T08:38:52.184Z,1007.30
2018-06-10T08:39:52.166Z,1007.29
2018-06-10T08:40:52.089Z,1007.29
2018-06-10T08:41:52.061Z,1007.25
2018-06-10T08:42:52.020Z,1007.28
2018-06-10T08:43:52.048Z,1007.30
2018-06-10T08:44:51.975Z,1007.47
2018-06-10T08:45:51.978Z,1007.34
2018-06-10T08:46:51.906Z,1007.43
2018-06-10T08:47:51.865Z,1007.44
2018-06-10T08:48:51.845Z,1007.37
2018-06-10T08:49:51.804Z,1007.47
2018-06-10T08:50:51.827Z,1007.47
2018-06-10T08:51:51.736Z,1007.50
2018-06-10T08:52:51.701Z,1007.42
2018-06-10T08:53:51.676Z,1007.40
2018-06-10T08:54:51.665Z,1007.38
2018-06-10T08:55:51.645Z,1007.34
2018-06-10T08:56:51.589Z,1007.35
2018-06-10T08:57:51.553Z,1007.32
2018-06-10T08:58:52.246Z,1007.34
2018-06-10T08:59:51.694Z,1007.29
2018-06-10T09:00:51.504Z,1007.29
2018-06-10T09:01:51.431Z,1007.26
2018-06-10T09:02:51.442Z,1007.28
2018-06-10T09:03:51.361Z,1007.31
2018-06-10T09:04:51.353Z,1007.33
2018-06-10T09:05:51.303Z,1007.40
2018-06-10T09:06:51.294Z,1007.49
2018-06-10T09:07:51.234Z,1007.57
2018-06-10T09:08:51.274Z,1007.68
2018-06-10T09:09:51.185Z,1007.50
2018-06-10T09:10:51.162Z,1007.51
2018-06-10T09:11:51.147Z,1007.50
2018-06-10T09:12:51.092Z,1007.53
2018-06-10T09:13:51.081Z,1007.56
2018-06-10T09:14:51.032Z,1007.60
2018-06-10T09:15:51.492Z,1007.66
2018-06-10T09:16:50.981Z,1007.61
2018-06-10T09:17:50.953Z,1007.65
2018-06-10T09:18:50.898Z,1007.58
2018-06-10T09:19:59.833Z,1007.56
2018-06-10T09:20:50.835Z,1007.63
2018-06-10T09:21:50.795Z,1007.61
2018-06-10T09:22:51.057Z,1007.61
2018-06-10T09:23:50.834Z,1007.66
2018-06-10T09:24:50.693Z,1007.75
2018-06-10T09:25:50.677Z,1007.75
2018-06-10T09:26:50.664Z,1007.70
2018-06-10T09:27:50.659Z,1007.63
2018-06-10T09:28:50.657Z,1007.61
2018-06-10T09:29:50.562Z,1007.64
2018-06-10T09:30:50.521Z,1007.62
2018-06-10T09:31:50.487Z,1007.57
2018-06-10T09:32:50.477Z,1007.58
2018-06-10T09:33:50.439Z,1007.59
2018-06-10T09:34:50.412Z,1007.62
2018-06-10T09:35:50.369Z,1007.62
2018-06-10T09:36:50.381Z,1007.62
2018-06-10T09:37:50.332Z,1007.63
2018-06-10T09:38:50.282Z,1007.61
2018-06-10T09:39:50.260Z,1007.65
2018-06-10T09:40:50.229Z,1007.68
2018-06-10T09:41:50.203Z,1007.61
2018-06-10T09:42:50.208Z,1007.74
2018-06-10T09:44:01.455Z,1007.58
2018-06-10T09:44:50.103Z,1007.58
2018-06-10T09:45:50.089Z,1007.53
2018-06-10T09:46:50.160Z,1007.47
2018-06-10T09:47:51.542Z,1007.39
2018-06-10T09:48:50.030Z,1007.37
2018-06-10T09:49:50.008Z,1007.28
2018-06-10T09:50:49.952Z,1007.31
2018-06-10T09:51:49.923Z,1007.24
2018-06-10T09:52:49.863Z,1007.24
2018-06-10T09:53:49.869Z,1007.28
2018-06-10T09:54:49.794Z,1007.23
2018-06-10T09:55:49.790Z,1007.21
2018-06-10T09:56:49.784Z,1007.22
2018-06-10T09:57:49.713Z,1007.23
2018-06-10T09:58:49.684Z,1007.25
2018-06-10T09:59:49.701Z,1007.23
2018-06-10T10:00:49.613Z,1007.26
2018-06-10T10:01:49.600Z,1007.30
2018-06-10T10:02:49.615Z,1007.34
2018-06-10T10:03:49.540Z,1007.35
2018-06-10T10:04:49.536Z,1007.32
2018-06-10T10:05:49.463Z,1007.36
2018-06-10T10:06:49.440Z,1007.36
2018-06-10T10:07:49.425Z,1007.44
2018-06-10T10:08:49.401Z,1007.48
2018-06-10T10:09:49.390Z,1007.45
2018-06-10T10:10:49.346Z,1007.50
2018-06-10T10:11:49.274Z,1007.51
2018-06-10T10:12:49.249Z,1007.49
2018-06-10T10:13:49.221Z,1007.46
2018-06-10T10:14:49.237Z,1007.43
2018-06-10T10:15:49.183Z,1007.46
2018-06-10T10:16:49.135Z,1007.43
2018-06-10T10:17:49.087Z,1007.47
2018-06-10T10:18:49.079Z,1007.44
2018-06-10T10:19:49.029Z,1007.41
2018-06-10T10:20:49.046Z,1007.43
2018-06-10T10:21:48.993Z,1007.43
2018-06-10T10:22:48.966Z,1007.45
2018-06-10T10:23:48.899Z,1007.43
2018-06-10T10:24:48.877Z,1007.43
2018-06-10T10:25:48.861Z,1007.45
2018-06-10T10:26:48.800Z,1007.47
2018-06-10T10:27:48.779Z,1007.45
2018-06-10T10:28:48.746Z,1007.44
2018-06-10T10:29:48.730Z,1007.45
2018-06-10T10:30:48.717Z,1007.43
2018-06-10T10:31:48.663Z,1007.43
2018-06-10T10:32:48.627Z,1007.44
2018-06-10T10:33:48.579Z,1007.44
2018-06-10T10:34:48.582Z,1007.41
2018-06-10T10:35:48.574Z,1007.46
2018-06-10T10:36:48.558Z,1007.48
2018-06-10T10:37:48.450Z,1007.50
2018-06-10T10:38:48.458Z,1007.52
2018-06-10T10:39:48.395Z,1007.55
2018-06-10T10:40:48.356Z,1007.58
2018-06-10T10:41:48.358Z,1007.53
2018-06-10T10:42:48.306Z,1007.59
2018-06-10T10:43:48.260Z,1007.58
2018-06-10T10:44:48.251Z,1007.58
2018-06-10T10:45:48.247Z,1007.59
2018-06-10T10:46:49.841Z,1007.55
2018-06-10T10:47:48.147Z,1007.52
2018-06-10T10:48:48.171Z,1007.60
2018-06-10T10:49:48.079Z,1007.59
2018-06-10T10:50:48.082Z,1007.65
2018-06-10T10:51:48.018Z,1007.64
2018-06-10T10:52:48.020Z,1007.68
2018-06-10T10:53:47.968Z,1007.72
2018-06-10T10:54:47.941Z,1007.62
2018-06-10T10:55:47.893Z,1007.61
2018-06-10T10:56:47.890Z,1007.58
2018-06-10T10:57:47.882Z,1007.57
2018-06-10T10:58:47.818Z,1007.55
2018-06-10T10:59:47.781Z,1007.56
2018-06-10T11:00:47.949Z,1007.56
2018-06-10T11:01:47.767Z,1007.55
2018-06-10T11:02:47.731Z,1007.49
2018-06-10T11:03:47.675Z,1007.44
2018-06-10T11:04:47.653Z,1007.46
2018-06-10T11:05:47.585Z,1007.40
2018-06-10T11:06:47.566Z,1007.40
2018-06-10T11:07:47.562Z,1007.41
2018-06-10T11:08:48.256Z,1007.39
2018-06-10T11:09:47.468Z,1007.39
2018-06-10T11:10:47.440Z,1007.40
2018-06-10T11:11:47.425Z,1007.40
2018-06-10T11:12:47.378Z,1007.41
2018-06-10T11:13:47.369Z,1007.44
2018-06-10T11:14:47.394Z,1007.49
2018-06-10T11:15:47.295Z,1007.48
2018-06-10T11:16:47.248Z,1007.47
2018-06-10T11:17:47.213Z,1007.51
2018-06-10T11:18:57.164Z,1007.62
2018-06-10T11:19:48.046Z,1007.72
2018-06-10T11:20:47.151Z,1007.68
2018-06-10T11:21:47.077Z,1007.65
2018-06-10T11:22:47.055Z,1007.62
2018-06-10T11:23:47.208Z,1007.68
2018-06-10T11:24:47.042Z,1007.66
2018-06-10T11:25:47.028Z,1007.62
2018-06-10T11:26:46.962Z,1007.66
2018-06-10T11:27:46.897Z,1007.69
2018-06-10T11:28:46.868Z,1007.67
2018-06-10T11:29:46.880Z,1007.62
2018-06-10T11:30:46.844Z,1007.62
2018-06-10T11:31:46.806Z,1007.62
2018-06-10T11:32:46.813Z,1007.69
2018-06-10T11:33:46.734Z,1007.68
2018-06-10T11:34:46.740Z,1007.65
2018-06-10T11:35:46.692Z,1007.61
2018-06-10T11:36:46.691Z,1007.56
2018-06-10T11:37:46.647Z,1007.60
2018-06-10T11:38:46.625Z,1007.61
2018-06-10T11:39:46.609Z,1007.61
2018-06-10T11:40:46.561Z,1007.58
2018-06-10T11:42:00.121Z,1007.50
2018-06-10T11:42:48.292Z,1007.42
2018-06-10T11:43:46.517Z,1007.37
2018-06-10T11:44:46.426Z,1007.38
2018-06-10T11:45:46.437Z,1007.47
2018-06-10T11:46:46.462Z,1007.43
2018-06-10T11:47:46.714Z,1007.42
2018-06-10T11:48:46.340Z,1007.42
2018-06-10T11:49:46.298Z,1007.43
2018-06-10T11:50:46.310Z,1007.40
2018-06-10T11:51:46.238Z,1007.39
2018-06-10T11:52:46.220Z,1007.44
2018-06-10T11:53:46.220Z,1007.36
2018-06-10T11:54:46.165Z,1007.30
2018-06-10T11:55:46.162Z,1007.36
2018-06-10T11:56:46.123Z,1007.38
2018-06-10T11:57:46.076Z,1007.47
2018-06-10T11:58:46.041Z,1007.49
2018-06-10T11:59:46.030Z,1007.52
2018-06-10T12:00:46.002Z,1007.46
2018-06-10T12:01:54.873Z,1007.50
2018-06-10T12:02:45.916Z,1007.50
2018-06-10T12:03:45.974Z,1007.50
2018-06-10T12:04:45.900Z,1007.49